sensor_id;sensor_type;location;lat;lon;timestamp;pressure;altitude;pressure_sealevel;temperature;humidity
78892;BME280;68368;51.728;5.248;2023-11-19T00:00:07;100864.14;;;12.92;100.00
78892;BME280;68368;51.728;5.248;2023-11-19T00:02:12;100857.89;;;12.93;100.00
78892;BME280;68368;51.728;5.248;2023-11-19T00:04:17;100853.59;;;12.94;100.00
78892;BME280;68368;51.728;5.248;2023-11-19T00:06:22;100844.85;;;12.94;100.00
78892;BME280;68368;51.728;5.248;2023-11-19T00:08:26;100831.48;;;12.94;100.00
78892;BME280;68368;51.728;5.248;2023-11-19T00:10:35;100834.69;;;12.94;100.00
78892;BME280;68368;51.728;5.248;2023-11-19T00:12:43;100831.14;;;12.94;100.00
78892;BME280;68368;51.728;5.248;2023-11-19T00:14:48;100824.20;;;12.94;100.00
78892;BME280;68368;51.728;5.248;2023-11-19T00:16:53;100818.88;;;12.93;100.00
78892;BME280;68368;51.728;5.248;2023-11-19T00:18:58;100817.27;;;12.92;100.00
78892;BME280;68368;51.728;5.248;2023-11-19T00:21:06;100812.13;;;12.92;100.00
78892;BME280;68368;51.728;5.248;2023-11-19T00:23:11;100816.55;;;12.93;100.00
78892;BME280;68368;51.728;5.248;2023-11-19T00:25:16;100816.19;;;12.94;100.00
78892;BME280;68368;51.728;5.248;2023-11-19T00:27:21;100806.92;;;12.93;100.00
78892;BME280;68368;51.728;5.248;2023-11-19T00:29:26;100815.29;;;12.94;100.00
78892;BME280;68368;51.728;5.248;2023-11-19T00:31:31;100805.66;;;12.94;100.00
78892;BME280;68368;51.728;5.248;2023-11-19T00:33:36;100807.25;;;12.95;100.00
78892;BME280;68368;51.728;5.248;2023-11-19T00:35:41;100805.29;;;12.95;100.00
78892;BME280;68368;51.728;5.248;2023-11-19T00:37:46;100809.18;;;12.96;100.00
78892;BME280;68368;51.728;5.248;2023-11-19T00:39:53;100803.27;;;12.97;100.00
78892;BME280;68368;51.728;5.248;2023-11-19T00:41:58;100804.89;;;12.98;100.00
78892;BME280;68368;51.728;5.248;2023-11-19T00:44:03;100802.92;;;12.97;100.00
78892;BME280;68368;51.728;5.248;2023-11-19T00:46:09;100819.68;;;12.96;100.00
78892;BME280;68368;51.728;5.248;2023-11-19T00:48:14;100821.86;;;12.95;100.00
78892;BME280;68368;51.728;5.248;2023-11-19T00:50:19;100820.98;;;12.94;100.00
78892;BME280;68368;51.728;5.248;2023-11-19T00:52:26;100815.16;;;12.91;100.00
78892;BME280;68368;51.728;5.248;2023-11-19T00:54:31;100822.13;;;12.89;100.00
78892;BME280;68368;51.728;5.248;2023-11-19T00:56:36;100823.77;;;12.87;100.00
78892;BME280;68368;51.728;5.248;2023-11-19T00:58:41;100819.90;;;12.85;100.00
78892;BME280;68368;51.728;5.248;2023-11-19T01:00:46;100822.96;;;12.84;100.00
78892;BME280;68368;51.728;5.248;2023-11-19T01:02:51;100817.29;;;12.82;100.00
78892;BME280;68368;51.728;5.248;2023-11-19T01:04:56;100811.45;;;12.80;100.00
78892;BME280;68368;51.728;5.248;2023-11-19T01:07:01;100806.14;;;12.79;100.00
78892;BME280;68368;51.728;5.248;2023-11-19T01:09:06;100813.30;;;12.77;100.00
78892;BME280;68368;51.728;5.248;2023-11-19T01:11:20;100809.75;;;12.76;100.00
78892;BME280;68368;51.728;5.248;2023-11-19T01:13:25;100810.82;;;12.76;100.00
78892;BME280;68368;51.728;5.248;2023-11-19T01:15:30;100804.59;;;12.76;100.00
78892;BME280;68368;51.728;5.248;2023-11-19T01:17:35;100799.27;;;12.75;100.00
78892;BME280;68368;51.728;5.248;2023-11-19T01:19:40;100797.68;;;12.75;100.00
78892;BME280;68368;51.728;5.248;2023-11-19T01:21:48;100787.89;;;12.74;100.00
78892;BME280;68368;51.728;5.248;2023-11-19T01:23:52;100781.13;;;12.74;100.00
78892;BME280;68368;51.728;5.248;2023-11-19T01:25:57;100775.63;;;12.73;100.00
78892;BME280;68368;51.728;5.248;2023-11-19T01:28:02;100773.51;;;12.71;100.00
78892;BME280;68368;51.728;5.248;2023-11-19T01:30:11;100763.73;;;12.70;100.00
78892;BME280;68368;51.728;5.248;2023-11-19T01:32:16;100765.54;;;12.69;100.00
78892;BME280;68368;51.728;5.248;2023-11-19T01:34:21;100776.07;;;12.68;100.00
78892;BME280;68368;51.728;5.248;2023-11-19T01:36:26;100778.98;;;12.66;100.00
78892;BME280;68368;51.728;5.248;2023-11-19T01:38:31;100779.34;;;12.65;100.00
78892;BME280;68368;51.728;5.248;2023-11-19T01:40:36;100783.67;;;12.62;100.00
78892;BME280;68368;51.728;5.248;2023-11-19T01:42:42;100789.93;;;12.61;100.00
78892;BME280;68368;51.728;5.248;2023-11-19T01:45:10;100788.54;;;12.59;100.00
78892;BME280;68368;51.728;5.248;2023-11-19T01:47:27;100786.45;;;12.57;100.00
78892;BME280;68368;51.728;5.248;2023-11-19T01:49:33;100779.37;;;12.54;100.00
78892;BME280;68368;51.728;5.248;2023-11-19T01:51:39;100779.42;;;12.51;100.00
78892;BME280;68368;51.728;5.248;2023-11-19T01:53:44;100783.05;;;12.48;100.00
78892;BME280;68368;51.728;5.248;2023-11-19T01:55:53;100783.83;;;12.44;100.00
78892;BME280;68368;51.728;5.248;2023-11-19T01:58:01;100775.38;;;12.39;100.00
78892;BME280;68368;51.728;5.248;2023-11-19T02:00:08;100775.83;;;12.33;100.00
78892;BME280;68368;51.728;5.248;2023-11-19T02:02:13;100774.17;;;12.27;100.00
78892;BME280;68368;51.728;5.248;2023-11-19T02:04:18;100770.94;;;12.19;100.00
78892;BME280;68368;51.728;5.248;2023-11-19T02:06:25;100785.26;;;12.14;100.00
78892;BME280;68368;51.728;5.248;2023-11-19T02:08:30;100781.78;;;12.10;100.00
78892;BME280;68368;51.728;5.248;2023-11-19T02:10:35;100780.05;;;12.06;100.00
78892;BME280;68368;51.728;5.248;2023-11-19T02:12:41;100787.61;;;12.02;100.00
78892;BME280;68368;51.728;5.248;2023-11-19T02:14:46;100789.63;;;11.98;100.00
78892;BME280;68368;51.728;5.248;2023-11-19T02:16:50;100791.81;;;11.95;100.00
78892;BME280;68368;51.728;5.248;2023-11-19T02:18:56;100790.23;;;11.94;100.00
78892;BME280;68368;51.728;5.248;2023-11-19T02:21:01;100795.02;;;11.94;100.00
78892;BME280;68368;51.728;5.248;2023-11-19T02:23:06;100792.88;;;11.95;100.00
78892;BME280;68368;51.728;5.248;2023-11-19T02:25:19;100784.51;;;11.95;100.00
78892;BME280;68368;51.728;5.248;2023-11-19T02:27:37;100774.02;;;11.95;100.00
78892;BME280;68368;51.728;5.248;2023-11-19T02:29:43;100780.76;;;11.96;100.00
78892;BME280;68368;51.728;5.248;2023-11-19T02:31:48;100785.23;;;11.96;100.00
78892;BME280;68368;51.728;5.248;2023-11-19T02:33:53;100791.09;;;11.96;100.00
78892;BME280;68368;51.728;5.248;2023-11-19T02:35:58;100788.59;;;11.95;100.00
78892;BME280;68368;51.728;5.248;2023-11-19T02:38:04;100792.16;;;11.96;100.00
78892;BME280;68368;51.728;5.248;2023-11-19T02:40:10;100799.79;;;11.95;100.00
78892;BME280;68368;51.728;5.248;2023-11-19T02:42:15;100797.50;;;11.95;100.00
78892;BME280;68368;51.728;5.248;2023-11-19T02:44:20;100796.80;;;11.94;100.00
78892;BME280;68368;51.728;5.248;2023-11-19T02:46:25;100790.91;;;11.95;100.00
78892;BME280;68368;51.728;5.248;2023-11-19T02:48:29;100780.44;;;11.94;100.00
78892;BME280;68368;51.728;5.248;2023-11-19T02:50:35;100780.84;;;11.92;100.00
78892;BME280;68368;51.728;5.248;2023-11-19T02:52:40;100772.19;;;11.87;100.00
78892;BME280;68368;51.728;5.248;2023-11-19T02:54:46;100775.63;;;11.82;100.00
78892;BME280;68368;51.728;5.248;2023-11-19T02:56:51;100778.23;;;11.75;100.00
78892;BME280;68368;51.728;5.248;2023-11-19T02:58:55;100781.70;;;11.69;100.00
78892;BME280;68368;51.728;5.248;2023-11-19T03:01:03;100789.60;;;11.64;100.00
78892;BME280;68368;51.728;5.248;2023-11-19T03:03:07;100787.01;;;11.59;100.00
78892;BME280;68368;51.728;5.248;2023-11-19T03:05:13;100783.17;;;11.54;100.00
78892;BME280;68368;51.728;5.248;2023-11-19T03:07:18;100788.75;;;11.49;100.00
78892;BME280;68368;51.728;5.248;2023-11-19T03:09:23;100796.11;;;11.45;100.00
78892;BME280;68368;51.728;5.248;2023-11-19T03:11:28;100796.17;;;11.41;100.00
78892;BME280;68368;51.728;5.248;2023-11-19T03:13:35;100801.20;;;11.37;100.00
78892;BME280;68368;51.728;5.248;2023-11-19T03:15:40;100791.11;;;11.33;100.00
78892;BME280;68368;51.728;5.248;2023-11-19T03:17:46;100789.95;;;11.28;100.00
78892;BME280;68368;51.728;5.248;2023-11-19T03:19:51;100792.67;;;11.24;100.00
78892;BME280;68368;51.728;5.248;2023-11-19T03:21:56;100796.47;;;11.19;100.00
78892;BME280;68368;51.728;5.248;2023-11-19T03:24:01;100794.92;;;11.14;100.00
78892;BME280;68368;51.728;5.248;2023-11-19T03:26:07;100787.87;;;11.11;100.00
78892;BME280;68368;51.728;5.248;2023-11-19T03:28:15;100788.08;;;11.08;100.00
78892;BME280;68368;51.728;5.248;2023-11-19T03:30:20;100780.66;;;11.05;100.00
78892;BME280;68368;51.728;5.248;2023-11-19T03:32:25;100776.60;;;11.03;100.00
78892;BME280;68368;51.728;5.248;2023-11-19T03:34:33;100776.65;;;10.99;100.00
78892;BME280;68368;51.728;5.248;2023-11-19T03:36:38;100777.04;;;10.96;100.00
78892;BME280;68368;51.728;5.248;2023-11-19T03:38:43;100776.54;;;10.94;100.00
78892;BME280;68368;51.728;5.248;2023-11-19T03:40:47;100778.00;;;10.91;100.00
78892;BME280;68368;51.728;5.248;2023-11-19T03:42:53;100776.44;;;10.87;100.00
78892;BME280;68368;51.728;5.248;2023-11-19T03:44:57;100775.77;;;10.85;100.00
78892;BME280;68368;51.728;5.248;2023-11-19T03:47:02;100777.21;;;10.82;100.00
78892;BME280;68368;51.728;5.248;2023-11-19T03:49:10;100781.50;;;10.80;100.00
78892;BME280;68368;51.728;5.248;2023-11-19T03:51:15;100779.05;;;10.77;100.00
78892;BME280;68368;51.728;5.248;2023-11-19T03:53:19;100764.52;;;10.76;100.00
78892;BME280;68368;51.728;5.248;2023-11-19T03:55:24;100771.43;;;10.76;100.00
78892;BME280;68368;51.728;5.248;2023-11-19T03:57:30;100774.64;;;10.75;100.00
78892;BME280;68368;51.728;5.248;2023-11-19T03:59:35;100771.83;;;10.72;100.00
78892;BME280;68368;51.728;5.248;2023-11-19T04:01:40;100772.73;;;10.71;100.00
78892;BME280;68368;51.728;5.248;2023-11-19T04:03:45;100770.27;;;10.71;100.00
78892;BME280;68368;51.728;5.248;2023-11-19T04:05:50;100776.48;;;10.69;100.00
78892;BME280;68368;51.728;5.248;2023-11-19T04:07:55;100787.33;;;10.68;100.00
78892;BME280;68368;51.728;5.248;2023-11-19T04:10:00;100786.45;;;10.67;100.00
78892;BME280;68368;51.728;5.248;2023-11-19T04:12:05;100781.48;;;10.64;100.00
78892;BME280;68368;51.728;5.248;2023-11-19T04:14:10;100787.73;;;10.63;100.00
78892;BME280;68368;51.728;5.248;2023-11-19T04:16:15;100785.44;;;10.62;100.00
78892;BME280;68368;51.728;5.248;2023-11-19T04:18:23;100787.58;;;10.61;100.00
78892;BME280;68368;51.728;5.248;2023-11-19T04:20:28;100793.09;;;10.60;100.00
78892;BME280;68368;51.728;5.248;2023-11-19T04:22:33;100790.27;;;10.59;100.00
78892;BME280;68368;51.728;5.248;2023-11-19T04:24:38;100793.27;;;10.61;100.00
78892;BME280;68368;51.728;5.248;2023-11-19T04:26:44;100793.63;;;10.60;100.00
78892;BME280;68368;51.728;5.248;2023-11-19T04:28:52;100791.52;;;10.57;100.00
78892;BME280;68368;51.728;5.248;2023-11-19T04:30:56;100782.84;;;10.55;100.00
78892;BME280;68368;51.728;5.248;2023-11-19T04:33:01;100784.64;;;10.54;100.00
78892;BME280;68368;51.728;5.248;2023-11-19T04:35:09;100795.66;;;10.53;100.00
78892;BME280;68368;51.728;5.248;2023-11-19T04:37:14;100794.80;;;10.51;100.00
78892;BME280;68368;51.728;5.248;2023-11-19T04:39:19;100792.48;;;10.50;100.00
78892;BME280;68368;51.728;5.248;2023-11-19T04:41:24;100791.07;;;10.51;100.00
78892;BME280;68368;51.728;5.248;2023-11-19T04:43:29;100799.05;;;10.51;100.00
78892;BME280;68368;51.728;5.248;2023-11-19T04:45:34;100802.59;;;10.53;100.00
78892;BME280;68368;51.728;5.248;2023-11-19T04:47:39;100804.52;;;10.53;100.00
78892;BME280;68368;51.728;5.248;2023-11-19T04:49:45;100810.37;;;10.53;100.00
78892;BME280;68368;51.728;5.248;2023-11-19T04:51:49;100815.02;;;10.52;100.00
78892;BME280;68368;51.728;5.248;2023-11-19T04:53:54;100807.57;;;10.51;100.00
78892;BME280;68368;51.728;5.248;2023-11-19T04:55:59;100812.02;;;10.50;100.00
78892;BME280;68368;51.728;5.248;2023-11-19T04:58:04;100807.77;;;10.48;100.00
78892;BME280;68368;51.728;5.248;2023-11-19T05:00:12;100804.23;;;10.46;100.00
78892;BME280;68368;51.728;5.248;2023-11-19T05:02:17;100802.30;;;10.45;100.00
78892;BME280;68368;51.728;5.248;2023-11-19T05:04:21;100800.89;;;10.43;100.00
78892;BME280;68368;51.728;5.248;2023-11-19T05:06:27;100800.55;;;10.43;100.00
78892;BME280;68368;51.728;5.248;2023-11-19T05:08:32;100801.41;;;10.45;100.00
78892;BME280;68368;51.728;5.248;2023-11-19T05:10:37;100800.89;;;10.44;100.00
78892;BME280;68368;51.728;5.248;2023-11-19T05:12:42;100806.04;;;10.45;100.00
78892;BME280;68368;51.728;5.248;2023-11-19T05:14:47;100806.23;;;10.42;100.00
78892;BME280;68368;51.728;5.248;2023-11-19T05:16:51;100807.52;;;10.39;100.00
78892;BME280;68368;51.728;5.248;2023-11-19T05:18:58;100800.96;;;10.37;100.00
78892;BME280;68368;51.728;5.248;2023-11-19T05:21:04;100801.16;;;10.35;100.00
78892;BME280;68368;51.728;5.248;2023-11-19T05:23:09;100802.93;;;10.35;100.00
78892;BME280;68368;51.728;5.248;2023-11-19T05:25:14;100802.23;;;10.34;100.00
78892;BME280;68368;51.728;5.248;2023-11-19T05:27:18;100804.02;;;10.34;100.00
78892;BME280;68368;51.728;5.248;2023-11-19T05:29:24;100813.08;;;10.33;100.00
78892;BME280;68368;51.728;5.248;2023-11-19T05:31:29;100812.88;;;10.34;100.00
78892;BME280;68368;51.728;5.248;2023-11-19T05:33:34;100821.38;;;10.35;100.00
78892;BME280;68368;51.728;5.248;2023-11-19T05:35:39;100812.33;;;10.37;100.00
78892;BME280;68368;51.728;5.248;2023-11-19T05:37:44;100814.27;;;10.37;100.00
78892;BME280;68368;51.728;5.248;2023-11-19T05:39:50;100815.86;;;10.37;100.00
78892;BME280;68368;51.728;5.248;2023-11-19T05:41:55;100826.33;;;10.39;100.00
78892;BME280;68368;51.728;5.248;2023-11-19T05:44:00;100823.13;;;10.39;100.00
78892;BME280;68368;51.728;5.248;2023-11-19T05:46:06;100828.61;;;10.40;100.00
78892;BME280;68368;51.728;5.248;2023-11-19T05:48:11;100825.05;;;10.40;100.00
78892;BME280;68368;51.728;5.248;2023-11-19T05:50:16;100826.48;;;10.40;100.00
78892;BME280;68368;51.728;5.248;2023-11-19T05:52:21;100821.00;;;10.39;100.00
78892;BME280;68368;51.728;5.248;2023-11-19T05:54:26;100819.78;;;10.36;100.00
78892;BME280;68368;51.728;5.248;2023-11-19T05:56:31;100817.52;;;10.33;100.00
78892;BME280;68368;51.728;5.248;2023-11-19T05:58:36;100816.98;;;10.31;100.00
78892;BME280;68368;51.728;5.248;2023-11-19T06:00:40;100819.85;;;10.30;100.00
78892;BME280;68368;51.728;5.248;2023-11-19T06:02:46;100816.30;;;10.28;100.00
78892;BME280;68368;51.728;5.248;2023-11-19T06:04:51;100820.55;;;10.26;100.00
78892;BME280;68368;51.728;5.248;2023-11-19T06:06:55;100818.96;;;10.24;100.00
78892;BME280;68368;51.728;5.248;2023-11-19T06:09:01;100823.95;;;10.23;100.00
78892;BME280;68368;51.728;5.248;2023-11-19T06:11:07;100826.45;;;10.22;100.00
78892;BME280;68368;51.728;5.248;2023-11-19T06:13:13;100823.61;;;10.20;100.00
78892;BME280;68368;51.728;5.248;2023-11-19T06:15:18;100814.40;;;10.20;100.00
78892;BME280;68368;51.728;5.248;2023-11-19T06:17:22;100819.20;;;10.19;100.00
78892;BME280;68368;51.728;5.248;2023-11-19T06:19:27;100814.61;;;10.16;100.00
78892;BME280;68368;51.728;5.248;2023-11-19T06:21:36;100820.65;;;10.14;100.00
78892;BME280;68368;51.728;5.248;2023-11-19T06:23:42;100814.10;;;10.13;100.00
78892;BME280;68368;51.728;5.248;2023-11-19T06:25:47;100812.70;;;10.11;100.00
78892;BME280;68368;51.728;5.248;2023-11-19T06:27:53;100815.19;;;10.10;100.00
78892;BME280;68368;51.728;5.248;2023-11-19T06:29:58;100809.52;;;10.09;100.00
78892;BME280;68368;51.728;5.248;2023-11-19T06:32:03;100808.98;;;10.09;100.00
78892;BME280;68368;51.728;5.248;2023-11-19T06:34:08;100820.17;;;10.08;100.00
78892;BME280;68368;51.728;5.248;2023-11-19T06:36:15;100818.41;;;10.07;100.00
78892;BME280;68368;51.728;5.248;2023-11-19T06:38:20;100812.23;;;10.05;100.00
78892;BME280;68368;51.728;5.248;2023-11-19T06:40:26;100822.34;;;10.04;100.00
78892;BME280;68368;51.728;5.248;2023-11-19T06:42:31;100822.53;;;10.04;100.00
78892;BME280;68368;51.728;5.248;2023-11-19T06:44:36;100818.97;;;10.03;100.00
78892;BME280;68368;51.728;5.248;2023-11-19T06:46:42;100824.65;;;10.03;100.00
78892;BME280;68368;51.728;5.248;2023-11-19T06:48:47;100822.72;;;10.02;100.00
78892;BME280;68368;51.728;5.248;2023-11-19T06:50:52;100827.87;;;10.01;100.00
78892;BME280;68368;51.728;5.248;2023-11-19T06:52:58;100825.55;;;10.01;100.00
78892;BME280;68368;51.728;5.248;2023-11-19T06:55:03;100834.95;;;10.02;100.00
78892;BME280;68368;51.728;5.248;2023-11-19T06:57:08;100831.92;;;10.03;100.00
78892;BME280;68368;51.728;5.248;2023-11-19T06:59:13;100842.20;;;10.05;100.00
78892;BME280;68368;51.728;5.248;2023-11-19T07:01:18;100848.94;;;10.04;100.00
78892;BME280;68368;51.728;5.248;2023-11-19T07:03:23;100855.31;;;10.05;100.00
78892;BME280;68368;51.728;5.248;2023-11-19T07:05:28;100858.50;;;10.07;100.00
78892;BME280;68368;51.728;5.248;2023-11-19T07:07:34;100854.92;;;10.10;100.00
78892;BME280;68368;51.728;5.248;2023-11-19T07:09:39;100857.02;;;10.14;100.00
78892;BME280;68368;51.728;5.248;2023-11-19T07:11:44;100854.52;;;10.17;100.00
78892;BME280;68368;51.728;5.248;2023-11-19T07:13:49;100859.45;;;10.21;100.00
78892;BME280;68368;51.728;5.248;2023-11-19T07:15:55;100862.98;;;10.23;100.00
78892;BME280;68368;51.728;5.248;2023-11-19T07:18:00;100870.95;;;10.24;100.00
78892;BME280;68368;51.728;5.248;2023-11-19T07:20:06;100871.31;;;10.25;100.00
78892;BME280;68368;51.728;5.248;2023-11-19T07:22:11;100869.89;;;10.27;100.00
78892;BME280;68368;51.728;5.248;2023-11-19T07:24:16;100875.02;;;10.31;100.00
78892;BME280;68368;51.728;5.248;2023-11-19T07:26:21;100872.14;;;10.33;100.00
78892;BME280;68368;51.728;5.248;2023-11-19T07:28:26;100865.20;;;10.38;100.00
78892;BME280;68368;51.728;5.248;2023-11-19T07:30:31;100872.09;;;10.41;100.00
78892;BME280;68368;51.728;5.248;2023-11-19T07:32:36;100872.94;;;10.44;100.00
78892;BME280;68368;51.728;5.248;2023-11-19T07:34:40;100870.62;;;10.46;100.00
78892;BME280;68368;51.728;5.248;2023-11-19T07:36:45;100869.18;;;10.48;100.00
78892;BME280;68368;51.728;5.248;2023-11-19T07:38:50;100870.95;;;10.50;100.00
78892;BME280;68368;51.728;5.248;2023-11-19T07:40:55;100870.73;;;10.53;100.00
78892;BME280;68368;51.728;5.248;2023-11-19T07:43:00;100866.98;;;10.54;100.00
78892;BME280;68368;51.728;5.248;2023-11-19T07:45:06;100869.45;;;10.57;100.00
78892;BME280;68368;51.728;5.248;2023-11-19T07:47:11;100873.84;;;10.62;100.00
78892;BME280;68368;51.728;5.248;2023-11-19T07:49:15;100872.20;;;10.67;100.00
78892;BME280;68368;51.728;5.248;2023-11-19T07:51:20;100868.23;;;10.73;99.94
78892;BME280;68368;51.728;5.248;2023-11-19T07:53:25;100865.70;;;10.77;99.50
78892;BME280;68368;51.728;5.248;2023-11-19T07:55:30;100869.37;;;10.83;99.27
78892;BME280;68368;51.728;5.248;2023-11-19T07:57:35;100870.73;;;10.88;99.02
78892;BME280;68368;51.728;5.248;2023-11-19T07:59:40;100874.93;;;10.94;98.92
78892;BME280;68368;51.728;5.248;2023-11-19T08:01:45;100881.45;;;10.98;98.56
78892;BME280;68368;51.728;5.248;2023-11-19T08:03:50;100877.90;;;10.99;98.59
78892;BME280;68368;51.728;5.248;2023-11-19T08:05:57;100877.01;;;10.98;98.15
78892;BME280;68368;51.728;5.248;2023-11-19T08:08:03;100881.06;;;11.01;98.05
78892;BME280;68368;51.728;5.248;2023-11-19T08:10:11;100886.02;;;11.04;97.90
78892;BME280;68368;51.728;5.248;2023-11-19T08:12:16;100887.91;;;11.08;97.62
78892;BME280;68368;51.728;5.248;2023-11-19T08:14:21;100884.85;;;11.13;97.58
78892;BME280;68368;51.728;5.248;2023-11-19T08:16:26;100883.73;;;11.17;97.55
78892;BME280;68368;51.728;5.248;2023-11-19T08:18:31;100884.93;;;11.20;97.07
78892;BME280;68368;51.728;5.248;2023-11-19T08:20:35;100883.08;;;11.27;96.91
78892;BME280;68368;51.728;5.248;2023-11-19T08:22:40;100882.21;;;11.39;96.90
78892;BME280;68368;51.728;5.248;2023-11-19T08:24:46;100891.34;;;11.49;96.28
78892;BME280;68368;51.728;5.248;2023-11-19T08:26:51;100884.60;;;11.61;95.96
78892;BME280;68368;51.728;5.248;2023-11-19T08:28:56;100886.76;;;11.71;95.56
78892;BME280;68368;51.728;5.248;2023-11-19T08:31:01;100888.42;;;11.80;94.68
78892;BME280;68368;51.728;5.248;2023-11-19T08:33:06;100894.89;;;11.89;94.60
78892;BME280;68368;51.728;5.248;2023-11-19T08:35:11;100894.44;;;11.96;94.19
78892;BME280;68368;51.728;5.248;2023-11-19T08:37:16;100892.04;;;12.02;93.89
78892;BME280;68368;51.728;5.248;2023-11-19T08:39:21;100886.48;;;12.05;93.58
78892;BME280;68368;51.728;5.248;2023-11-19T08:41:26;100884.15;;;12.06;93.25
78892;BME280;68368;51.728;5.248;2023-11-19T08:43:31;100886.77;;;12.09;93.14
78892;BME280;68368;51.728;5.248;2023-11-19T08:45:36;100885.93;;;12.17;92.55
78892;BME280;68368;51.728;5.248;2023-11-19T08:47:41;100879.05;;;12.25;92.53
78892;BME280;68368;51.728;5.248;2023-11-19T08:49:46;100886.95;;;12.31;92.04
78892;BME280;68368;51.728;5.248;2023-11-19T08:51:51;100895.27;;;12.34;91.80
78892;BME280;68368;51.728;5.248;2023-11-19T08:53:56;100899.16;;;12.36;91.71
78892;BME280;68368;51.728;5.248;2023-11-19T08:56:00;100901.66;;;12.35;91.79
78892;BME280;68368;51.728;5.248;2023-11-19T08:58:05;100899.55;;;12.33;91.51
78892;BME280;68368;51.728;5.248;2023-11-19T09:00:13;100899.39;;;12.32;91.69
78892;BME280;68368;51.728;5.248;2023-11-19T09:02:18;100898.50;;;12.32;91.17
78892;BME280;68368;51.728;5.248;2023-11-19T09:04:23;100896.73;;;12.32;91.19
78892;BME280;68368;51.728;5.248;2023-11-19T09:06:28;100890.48;;;12.33;91.03
78892;BME280;68368;51.728;5.248;2023-11-19T09:08:33;100895.30;;;12.32;89.76
78892;BME280;68368;51.728;5.248;2023-11-19T09:10:38;100888.75;;;12.30;89.92
78892;BME280;68368;51.728;5.248;2023-11-19T09:12:43;100885.89;;;12.30;90.27
78892;BME280;68368;51.728;5.248;2023-11-19T09:14:48;100892.92;;;12.36;90.20
78892;BME280;68368;51.728;5.248;2023-11-19T09:16:52;100887.89;;;12.39;89.96
78892;BME280;68368;51.728;5.248;2023-11-19T09:18:57;100882.88;;;12.40;89.85
78892;BME280;68368;51.728;5.248;2023-11-19T09:21:02;100888.17;;;12.43;89.61
78892;BME280;68368;51.728;5.248;2023-11-19T09:23:07;100888.92;;;12.51;89.74
78892;BME280;68368;51.728;5.248;2023-11-19T09:25:12;100887.67;;;12.62;89.42
78892;BME280;68368;51.728;5.248;2023-11-19T09:27:17;100884.44;;;12.73;89.22
78892;BME280;68368;51.728;5.248;2023-11-19T09:29:24;100887.95;;;12.86;88.34
78892;BME280;68368;51.728;5.248;2023-11-19T09:31:30;100892.33;;;12.99;88.11
78892;BME280;68368;51.728;5.248;2023-11-19T09:33:35;100884.23;;;13.12;87.41
78892;BME280;68368;51.728;5.248;2023-11-19T09:35:41;100886.70;;;13.23;87.02
78892;BME280;68368;51.728;5.248;2023-11-19T09:37:46;100888.55;;;13.38;86.32
78892;BME280;68368;51.728;5.248;2023-11-19T09:39:52;100887.36;;;13.52;86.31
78892;BME280;68368;51.728;5.248;2023-11-19T09:41:57;100884.44;;;13.64;85.67
78892;BME280;68368;51.728;5.248;2023-11-19T09:44:02;100886.23;;;13.71;85.34
78892;BME280;68368;51.728;5.248;2023-11-19T09:46:10;100887.23;;;13.75;84.69
78892;BME280;68368;51.728;5.248;2023-11-19T09:48:18;100887.67;;;13.79;84.44
78892;BME280;68368;51.728;5.248;2023-11-19T09:50:23;100889.50;;;13.85;84.23
78892;BME280;68368;51.728;5.248;2023-11-19T09:52:28;100886.14;;;13.84;83.89
78892;BME280;68368;51.728;5.248;2023-11-19T09:54:33;100878.16;;;13.81;83.36
78892;BME280;68368;51.728;5.248;2023-11-19T09:56:40;100883.91;;;13.79;82.88
78892;BME280;68368;51.728;5.248;2023-11-19T09:58:45;100879.92;;;13.82;83.14
78892;BME280;68368;51.728;5.248;2023-11-19T10:00:51;100884.66;;;13.86;82.56
78892;BME280;68368;51.728;5.248;2023-11-19T10:02:56;100883.73;;;13.88;82.33
78892;BME280;68368;51.728;5.248;2023-11-19T10:05:06;100885.45;;;13.90;81.86
78892;BME280;68368;51.728;5.248;2023-11-19T10:07:11;100885.97;;;13.91;81.60
78892;BME280;68368;51.728;5.248;2023-11-19T10:09:17;100884.98;;;13.88;81.20
78892;BME280;68368;51.728;5.248;2023-11-19T10:11:22;100879.66;;;13.86;80.61
78892;BME280;68368;51.728;5.248;2023-11-19T10:13:32;100888.75;;;13.87;80.52
78892;BME280;68368;51.728;5.248;2023-11-19T10:15:40;100880.02;;;13.85;80.98
78892;BME280;68368;51.728;5.248;2023-11-19T10:17:45;100884.19;;;13.83;81.14
78892;BME280;68368;51.728;5.248;2023-11-19T10:19:50;100882.77;;;13.83;80.84
78892;BME280;68368;51.728;5.248;2023-11-19T10:21:55;100879.02;;;13.83;81.09
78892;BME280;68368;51.728;5.248;2023-11-19T10:24:00;100877.85;;;13.79;80.75
78892;BME280;68368;51.728;5.248;2023-11-19T10:26:07;100873.80;;;13.77;80.52
78892;BME280;68368;51.728;5.248;2023-11-19T10:28:12;100872.16;;;13.78;81.06
78892;BME280;68368;51.728;5.248;2023-11-19T10:30:24;100863.65;;;13.75;80.65
78892;BME280;68368;51.728;5.248;2023-11-19T10:32:29;100859.31;;;13.71;80.77
78892;BME280;68368;51.728;5.248;2023-11-19T10:34:33;100859.94;;;13.67;81.03
78892;BME280;68368;51.728;5.248;2023-11-19T10:36:41;100861.38;;;13.66;80.72
78892;BME280;68368;51.728;5.248;2023-11-19T10:38:55;100858.10;;;13.69;80.95
78892;BME280;68368;51.728;5.248;2023-11-19T10:41:01;100855.89;;;13.72;80.73
78892;BME280;68368;51.728;5.248;2023-11-19T10:43:06;100864.89;;;13.76;80.87
78892;BME280;68368;51.728;5.248;2023-11-19T10:45:24;100863.65;;;13.84;80.88
78892;BME280;68368;51.728;5.248;2023-11-19T10:47:29;100855.34;;;13.89;80.07
78892;BME280;68368;51.728;5.248;2023-11-19T10:49:35;100852.62;;;13.90;80.18